createdAt,value
2023-03-05T23:01:13.858Z,4.90
2023-03-05T23:01:46.289Z,5.20
2023-03-05T23:02:18.740Z,4.60
2023-03-05T23:02:51.197Z,5.40
2023-03-05T23:03:23.713Z,6.60
2023-03-05T23:03:56.149Z,5.30
2023-03-05T23:04:28.669Z,4.90
2023-03-05T23:05:01.311Z,5.40
2023-03-05T23:05:33.938Z,5.80
2023-03-05T23:06:06.563Z,5.40
2023-03-05T23:06:38.996Z,4.80
2023-03-05T23:07:11.470Z,4.90
2023-03-05T23:07:43.921Z,5.10
2023-03-05T23:08:16.378Z,5.40
2023-03-05T23:08:48.919Z,5.80
2023-03-05T23:09:21.362Z,5.50
2023-03-05T23:09:54.597Z,5.20
2023-03-05T23:10:27.363Z,5.50
2023-03-05T23:10:59.458Z,5.20
2023-03-05T23:11:31.895Z,5.30
2023-03-05T23:12:04.333Z,5.30
2023-03-05T23:12:36.782Z,5.90
2023-03-05T23:13:16.758Z,6.20
2023-03-05T23:13:49.206Z,5.80
2023-03-05T23:14:21.672Z,5.90
2023-03-05T23:14:54.233Z,5.60
2023-03-05T23:15:26.686Z,5.60
2023-03-05T23:15:59.164Z,5.70
2023-03-05T23:16:31.648Z,5.00
2023-03-05T23:17:04.111Z,5.30
2023-03-05T23:17:36.603Z,5.90
2023-03-05T23:18:09.208Z,5.80
2023-03-05T23:18:41.694Z,5.70
2023-03-05T23:19:14.147Z,5.50
2023-03-05T23:19:46.607Z,5.50
2023-03-05T23:20:19.046Z,5.90
2023-03-05T23:20:51.513Z,5.70
2023-03-05T23:21:24.028Z,5.40
2023-03-05T23:21:56.508Z,5.80
2023-03-05T23:22:29.000Z,5.90
2023-03-05T23:23:01.465Z,5.90
2023-03-05T23:23:34.040Z,5.50
2023-03-05T23:24:06.505Z,5.10
2023-03-05T23:24:38.983Z,5.40
2023-03-05T23:25:11.495Z,6.10
2023-03-05T23:25:43.996Z,6.10
2023-03-05T23:26:16.469Z,5.40
2023-03-05T23:26:48.942Z,5.90
2023-03-05T23:27:21.444Z,5.90
2023-03-05T23:27:54.005Z,6.10
2023-03-05T23:28:26.460Z,5.20
2023-03-05T23:28:58.931Z,5.20
2023-03-05T23:29:31.385Z,5.90
2023-03-05T23:30:03.869Z,5.80
2023-03-05T23:30:36.393Z,6.10
2023-03-05T23:31:08.922Z,6.40
2023-03-05T23:31:41.324Z,6.10
2023-03-05T23:32:13.809Z,6.10
2023-03-05T23:32:46.229Z,6.20
2023-03-05T23:33:18.677Z,6.10
2023-03-05T23:33:51.148Z,5.90
2023-03-05T23:34:23.613Z,5.90
2023-03-05T23:34:56.072Z,5.90
2023-03-05T23:35:28.602Z,6.40
2023-03-05T23:36:01.084Z,7.20
2023-03-05T23:36:33.562Z,6.50
2023-03-05T23:37:06.055Z,6.20
2023-03-05T23:37:38.476Z,6.60
2023-03-05T23:38:10.933Z,6.30
2023-03-05T23:38:43.393Z,6.00
2023-03-05T23:39:15.861Z,6.00
2023-03-05T23:39:48.319Z,6.50
2023-03-05T23:40:20.769Z,6.90
2023-03-05T23:40:53.247Z,6.30
2023-03-05T23:41:25.701Z,6.00
2023-03-05T23:41:58.174Z,5.90
2023-03-05T23:42:30.636Z,6.20
2023-03-05T23:43:03.162Z,6.50
2023-03-05T23:43:35.723Z,6.90
2023-03-05T23:44:08.178Z,7.10
2023-03-05T23:44:40.665Z,6.90
2023-03-05T23:45:13.144Z,6.30
2023-03-05T23:45:45.612Z,6.20
2023-03-05T23:46:18.085Z,6.50
2023-03-05T23:46:50.601Z,6.80
2023-03-05T23:47:23.097Z,6.70
2023-03-05T23:47:55.628Z,7.40
2023-03-05T23:48:28.118Z,6.60
2023-03-05T23:49:00.589Z,6.00
2023-03-05T23:49:33.137Z,7.10
2023-03-05T23:50:05.480Z,7.50
2023-03-05T23:50:37.946Z,6.40
2023-03-05T23:51:10.456Z,6.30
2023-03-05T23:51:42.884Z,7.30
2023-03-05T23:52:15.342Z,7.50
2023-03-05T23:52:47.787Z,7.00
2023-03-05T23:53:20.282Z,6.40
2023-03-05T23:53:52.719Z,6.80
2023-03-05T23:54:25.172Z,7.50
2023-03-05T23:54:57.689Z,7.60
2023-03-05T23:55:30.173Z,7.80
2023-03-05T23:56:02.649Z,7.40
2023-03-05T23:56:35.147Z,6.90
2023-03-05T23:57:07.592Z,7.00
2023-03-05T23:57:40.074Z,6.60
2023-03-05T23:58:12.521Z,6.60
2023-03-05T23:58:44.984Z,6.60
2023-03-05T23:59:17.560Z,6.80
2023-03-05T23:59:50.018Z,6.30
